This is the latest recevied weather packets stored in our database for station/object MEGLR. If no packets are shown the sender has not sent any weather packets the latest 10 day(s).
| Time | Temp. | Humidity | Pressure | Rain* | Wind** | Luminosity | Snow |
|---|---|---|---|---|---|---|---|
| 1777820404 | 20° C | 34% | 0 hPa | - | - | - | - |
| 1777819803 | 19.44° C | 37% | 0 hPa | - | - | - | - |
| 1777819202 | 18.89° C | 39% | 0 hPa | - | - | - | - |
| 1777818603 | 18.33° C | 46% | 0 hPa | - | - | - | - |
| 1777818003 | 18.89° C | 40% | 0 hPa | - | - | - | - |
| 1777817403 | 18.33° C | 43% | 0 hPa | - | - | - | - |
| 1777816803 | 18.33° C | 42% | 0 hPa | - | - | - | - |
| 1777816208 | 18.89° C | 42% | 0 hPa | - | - | - | - |
| 1777815603 | 18.33° C | 45% | 0 hPa | - | - | - | - |
| 1777815003 | 16.11° C | 66% | 0 hPa | - | - | - | - |
| 1777814402 | 17.22° C | 55% | 0 hPa | - | - | - | - |
| 1777813803 | 17.22° C | 57% | 0 hPa | - | - | - | - |
| 1777813204 | 16.67° C | 62% | 0 hPa | - | - | - | - |
| 1777812603 | 16.67° C | 64% | 0 hPa | - | - | - | - |
| 1777812003 | 18.33° C | 47% | 0 hPa | - | - | - | - |
| 1777811403 | 17.22° C | 54% | 0 hPa | - | - | - | - |
| 1777810803 | 17.22° C | 52% | 0 hPa | - | - | - | - |
| 1777810203 | 17.78° C | 54% | 0 hPa | - | - | - | - |
| 1777809603 | 17.22° C | 55% | 0 hPa | - | - | - | - |
| 1777809003 | 18.33° C | 47% | 0 hPa | - | - | - | - |
| 1777808403 | 16.67° C | 60% | 0 hPa | - | - | - | - |
| 1777807804 | 16.67° C | 64% | 0 hPa | - | - | - | - |
| 1777807202 | 17.22° C | 62% | 0 hPa | - | - | - | - |
| 1777806603 | 17.78° C | 61% | 0 hPa | - | - | - | - |
| 1777806003 | 18.89° C | 44% | 0 hPa | - | - | - | - |
* Rain since midnight (hover to see other rain measurements)
** Current wind speed in m/s (hover to see current wind gust speed)